createdAt,value
2022-12-26T00:00:08.960Z,53.60
2022-12-26T00:02:37.733Z,53.60
2022-12-26T00:05:06.338Z,53.60
2022-12-26T00:07:35.548Z,53.60
2022-12-26T00:10:03.425Z,53.60
2022-12-26T00:12:31.313Z,53.60
2022-12-26T00:14:59.197Z,53.60
2022-12-26T00:17:27.109Z,53.60
2022-12-26T00:19:54.950Z,53.50
2022-12-26T00:22:22.799Z,53.50
2022-12-26T00:24:52.010Z,53.50
2022-12-26T00:27:20.091Z,53.50
2022-12-26T00:29:48.858Z,53.60
2022-12-26T00:32:16.740Z,53.60
2022-12-26T00:34:44.612Z,53.50
2022-12-26T00:37:12.481Z,53.50
2022-12-26T00:39:40.377Z,53.40
2022-12-26T00:42:09.611Z,53.40
2022-12-26T00:44:37.587Z,53.30
2022-12-26T00:47:05.480Z,53.30
2022-12-26T00:50:13.054Z,53.30
2022-12-26T00:52:21.266Z,53.30
2022-12-26T00:54:49.182Z,53.30
2022-12-26T00:57:18.413Z,53.30
2022-12-26T00:59:46.334Z,53.30
2022-12-26T01:02:28.230Z,53.30
2022-12-26T01:04:56.301Z,53.30
2022-12-26T01:07:24.173Z,53.30
2022-12-26T01:09:52.032Z,53.20
2022-12-26T01:12:21.243Z,53.30
2022-12-26T01:14:49.121Z,53.20
2022-12-26T01:17:16.987Z,53.30
2022-12-26T01:19:44.848Z,53.20
2022-12-26T01:22:12.722Z,53.30
2022-12-26T01:24:40.832Z,53.30
2022-12-26T01:27:08.805Z,53.20
2022-12-26T01:29:38.014Z,53.30
2022-12-26T01:32:06.494Z,53.30
2022-12-26T01:34:34.441Z,53.30
2022-12-26T01:37:02.327Z,53.30
2022-12-26T01:39:30.653Z,53.20
2022-12-26T01:41:58.499Z,53.20
2022-12-26T01:45:03.113Z,53.30
2022-12-26T01:47:38.951Z,53.30
2022-12-26T01:50:08.083Z,53.30
2022-12-26T01:52:37.718Z,53.30
2022-12-26T01:55:06.790Z,53.30
2022-12-26T01:57:36.789Z,53.30
2022-12-26T02:00:07.518Z,53.30
2022-12-26T02:02:55.224Z,53.30
2022-12-26T02:05:36.557Z,53.30
2022-12-26T02:08:05.930Z,53.30
2022-12-26T02:10:35.008Z,53.30
2022-12-26T02:13:02.896Z,53.30
2022-12-26T02:15:32.100Z,53.40
2022-12-26T02:18:00.142Z,53.40
2022-12-26T02:20:29.900Z,53.40
2022-12-26T02:23:27.297Z,53.40
2022-12-26T02:26:21.992Z,53.40
2022-12-26T02:29:23.355Z,53.30
2022-12-26T02:31:53.992Z,53.30
2022-12-26T02:34:23.528Z,53.30
2022-12-26T02:37:01.764Z,53.30
2022-12-26T02:39:46.613Z,53.40
2022-12-26T02:42:21.537Z,53.30
2022-12-26T02:45:09.887Z,53.40
2022-12-26T02:47:43.053Z,53.30
2022-12-26T02:50:31.464Z,53.30
2022-12-26T02:53:22.834Z,53.20
2022-12-26T02:56:09.338Z,53.30
2022-12-26T02:58:57.361Z,53.30
2022-12-26T03:01:45.146Z,53.30
2022-12-26T03:04:33.021Z,53.20
2022-12-26T03:07:19.165Z,53.20
2022-12-26T03:10:04.678Z,53.20
2022-12-26T03:12:54.594Z,53.10
2022-12-26T03:15:22.979Z,53.10
2022-12-26T03:17:51.448Z,53.00
2022-12-26T03:20:22.093Z,53.10
2022-12-26T03:22:50.791Z,53.00
2022-12-26T03:25:38.478Z,53.10
2022-12-26T03:28:06.351Z,53.10
2022-12-26T03:30:52.104Z,53.00
2022-12-26T03:33:46.394Z,53.00
2022-12-26T03:36:16.982Z,53.00
2022-12-26T03:38:51.421Z,53.00
2022-12-26T03:41:39.902Z,53.00
2022-12-26T03:44:31.054Z,53.10
2022-12-26T03:47:22.295Z,53.10
2022-12-26T03:50:10.239Z,53.10
2022-12-26T03:53:01.436Z,53.00
2022-12-26T03:55:49.743Z,53.10
2022-12-26T03:58:38.473Z,53.10
2022-12-26T04:01:25.645Z,53.10
2022-12-26T04:04:11.279Z,53.00
2022-12-26T04:07:00.335Z,53.10
2022-12-26T04:09:49.347Z,53.10
2022-12-26T04:12:36.924Z,53.10
2022-12-26T04:15:23.861Z,53.10
2022-12-26T04:18:12.152Z,53.10
2022-12-26T04:20:44.520Z,53.10
2022-12-26T04:23:31.300Z,53.00
2022-12-26T04:26:20.054Z,53.10
2022-12-26T04:29:05.566Z,53.10
2022-12-26T04:31:52.605Z,53.10
2022-12-26T04:34:40.853Z,53.10
2022-12-26T04:37:28.356Z,53.10
2022-12-26T04:40:13.972Z,53.10
2022-12-26T04:43:00.979Z,53.10
2022-12-26T04:45:28.818Z,53.10
2022-12-26T04:48:14.275Z,53.10
2022-12-26T04:50:50.464Z,53.10
2022-12-26T04:53:18.321Z,53.10
2022-12-26T04:55:46.242Z,53.20
2022-12-26T04:58:15.466Z,53.10
2022-12-26T05:00:43.303Z,53.10
2022-12-26T05:03:29.429Z,53.10
2022-12-26T05:06:14.906Z,53.20
2022-12-26T05:09:01.475Z,53.10
2022-12-26T05:11:29.731Z,54.20
2022-12-26T05:13:59.241Z,53.10
2022-12-26T05:16:44.834Z,53.10
2022-12-26T05:19:30.486Z,53.20
2022-12-26T05:22:15.808Z,53.10
2022-12-26T05:25:01.343Z,53.10
2022-12-26T05:27:47.322Z,54.10
2022-12-26T05:30:16.716Z,53.10
2022-12-26T05:33:03.074Z,53.10
2022-12-26T05:35:30.976Z,53.10
2022-12-26T05:37:58.844Z,53.10
2022-12-26T05:40:26.734Z,53.10
2022-12-26T05:42:54.692Z,53.10
2022-12-26T05:45:23.914Z,53.00
2022-12-26T05:47:52.307Z,53.00
2022-12-26T05:50:20.438Z,53.00
2022-12-26T05:52:48.268Z,52.90
2022-12-26T05:55:16.247Z,53.00
2022-12-26T05:57:44.173Z,52.80
2022-12-26T06:00:13.337Z,52.90
2022-12-26T06:02:42.706Z,52.90
2022-12-26T06:05:11.498Z,52.90
2022-12-26T06:07:39.431Z,52.90
2022-12-26T06:10:08.250Z,52.90
2022-12-26T06:12:36.269Z,52.90
2022-12-26T06:15:04.315Z,52.90
2022-12-26T06:17:32.367Z,52.90
2022-12-26T06:20:01.626Z,52.90
2022-12-26T06:22:30.060Z,52.90
2022-12-26T06:24:57.965Z,52.90
2022-12-26T06:27:25.935Z,52.90
2022-12-26T06:29:53.793Z,52.90
2022-12-26T06:32:21.671Z,52.80
2022-12-26T06:34:49.588Z,52.90
2022-12-26T06:37:18.818Z,52.90
2022-12-26T06:39:47.289Z,52.90
2022-12-26T06:42:15.125Z,52.90
2022-12-26T06:44:43.084Z,52.90
2022-12-26T06:47:11.069Z,52.90
2022-12-26T06:49:38.956Z,52.80
2022-12-26T06:52:08.378Z,52.90
2022-12-26T06:54:37.603Z,52.80
2022-12-26T06:57:05.489Z,52.90
2022-12-26T06:59:33.381Z,52.90
2022-12-26T07:02:01.408Z,52.90
2022-12-26T07:04:29.437Z,52.90
2022-12-26T07:06:57.366Z,52.90
2022-12-26T07:09:31.453Z,52.90
2022-12-26T07:12:02.795Z,52.90
2022-12-26T07:14:30.664Z,52.90
2022-12-26T07:16:58.552Z,52.90
2022-12-26T07:19:26.445Z,53.00
2022-12-26T07:21:54.336Z,53.00
2022-12-26T07:24:22.954Z,52.90
2022-12-26T07:26:50.926Z,52.90
2022-12-26T07:29:20.189Z,52.90
2022-12-26T07:31:48.168Z,52.90
2022-12-26T07:34:16.053Z,52.90
2022-12-26T07:36:43.914Z,52.90
2022-12-26T07:39:13.752Z,52.90
2022-12-26T07:42:04.696Z,53.00
2022-12-26T07:44:35.103Z,53.00
2022-12-26T07:47:02.989Z,53.00
2022-12-26T07:49:30.863Z,52.90
2022-12-26T07:51:58.781Z,52.90
2022-12-26T07:54:28.560Z,52.90
2022-12-26T07:57:15.018Z,52.90
2022-12-26T07:59:44.606Z,52.90
2022-12-26T08:02:12.711Z,52.80
2022-12-26T08:04:40.645Z,52.80
2022-12-26T08:07:09.286Z,52.90
2022-12-26T08:09:38.327Z,52.90
2022-12-26T08:12:06.467Z,52.90
2022-12-26T08:14:34.300Z,52.90
2022-12-26T08:17:03.605Z,52.80
2022-12-26T08:19:31.625Z,52.90
2022-12-26T08:21:59.474Z,52.80
2022-12-26T08:24:27.397Z,52.80
2022-12-26T08:26:55.303Z,52.80
2022-12-26T08:29:23.171Z,52.70
2022-12-26T08:31:51.090Z,52.70
2022-12-26T08:34:20.319Z,52.70
2022-12-26T08:36:51.086Z,52.70
2022-12-26T08:39:18.951Z,52.70
2022-12-26T08:41:46.835Z,52.70
2022-12-26T08:44:32.914Z,52.70
2022-12-26T08:47:00.821Z,52.70
2022-12-26T08:49:30.145Z,52.70
2022-12-26T08:51:58.034Z,52.70
2022-12-26T08:54:25.915Z,52.70
2022-12-26T08:56:53.857Z,52.70
2022-12-26T08:59:21.940Z,52.70
2022-12-26T09:01:49.954Z,52.70
2022-12-26T09:04:17.960Z,52.70
2022-12-26T09:06:47.200Z,52.70
2022-12-26T09:09:15.124Z,52.70
2022-12-26T09:11:43.392Z,52.70
2022-12-26T09:14:11.304Z,52.70
2022-12-26T09:16:49.377Z,52.70
2022-12-26T09:19:18.356Z,52.80
2022-12-26T09:21:47.697Z,52.70
2022-12-26T09:24:17.214Z,52.70
2022-12-26T09:26:45.385Z,52.70
2022-12-26T09:29:13.523Z,53.70
2022-12-26T09:31:41.514Z,52.70
2022-12-26T09:34:09.413Z,52.80
2022-12-26T09:36:38.835Z,52.70
2022-12-26T09:39:08.405Z,52.80
2022-12-26T09:41:47.509Z,52.80
2022-12-26T09:44:17.587Z,52.80
2022-12-26T09:46:48.373Z,52.70
2022-12-26T09:49:17.697Z,52.80
2022-12-26T09:51:49.689Z,52.90
2022-12-26T09:54:26.508Z,52.90
2022-12-26T09:57:02.973Z,52.90
2022-12-26T09:59:33.319Z,52.80
2022-12-26T10:02:01.285Z,52.90
2022-12-26T10:04:30.799Z,52.90
2022-12-26T10:07:04.519Z,52.90
2022-12-26T10:09:44.022Z,52.90
2022-12-26T10:12:29.992Z,52.90
2022-12-26T10:15:00.592Z,52.90
2022-12-26T10:17:33.072Z,52.90
2022-12-26T10:20:09.742Z,52.90
2022-12-26T10:23:14.001Z,52.90
2022-12-26T10:25:44.815Z,52.90
2022-12-26T10:28:18.296Z,52.90
2022-12-26T10:30:46.206Z,52.90
2022-12-26T10:33:16.419Z,52.90
2022-12-26T10:35:45.377Z,52.80
2022-12-26T10:38:14.935Z,52.90
2022-12-26T10:40:46.360Z,52.90
2022-12-26T10:43:23.884Z,52.90
2022-12-26T10:45:55.088Z,52.90
2022-12-26T10:48:23.018Z,52.80
2022-12-26T10:50:50.853Z,52.90
2022-12-26T10:53:18.783Z,52.80
2022-12-26T10:55:48.061Z,52.80
2022-12-26T10:58:17.586Z,52.80
2022-12-26T11:00:45.541Z,52.90
2022-12-26T11:03:14.614Z,52.70
2022-12-26T11:08:40.705Z,52.70
2022-12-26T11:11:14.149Z,52.70
2022-12-26T11:13:49.258Z,52.70
2022-12-26T11:16:24.782Z,52.70
2022-12-26T11:18:52.996Z,52.80
2022-12-26T11:21:25.581Z,52.70
2022-12-26T11:23:53.904Z,52.70
2022-12-26T11:26:24.560Z,52.70
2022-12-26T11:29:06.456Z,52.70
2022-12-26T11:31:34.343Z,52.70
2022-12-26T11:34:02.320Z,52.80
2022-12-26T11:36:30.291Z,52.70
2022-12-26T11:38:59.608Z,52.70
2022-12-26T11:41:41.615Z,52.80
2022-12-26T11:44:27.902Z,52.70
2022-12-26T11:46:58.235Z,52.70
2022-12-26T11:49:29.892Z,52.70
2022-12-26T11:51:59.831Z,52.70
2022-12-26T11:54:37.618Z,52.80
2022-12-26T11:57:17.709Z,52.70
2022-12-26T11:59:45.685Z,52.60
2022-12-26T12:02:31.803Z,52.50
2022-12-26T12:05:02.230Z,52.60
2022-12-26T12:07:53.019Z,52.50
2022-12-26T12:10:47.741Z,52.50
2022-12-26T12:13:22.544Z,52.50
2022-12-26T12:15:52.950Z,52.60
2022-12-26T12:18:23.571Z,52.60
2022-12-26T12:20:58.757Z,52.70
2022-12-26T12:23:35.256Z,52.70
2022-12-26T12:26:07.546Z,52.80
2022-12-26T12:28:50.995Z,53.80
2022-12-26T12:31:22.165Z,52.80
2022-12-26T12:33:53.461Z,52.80
2022-12-26T12:36:23.647Z,52.90
2022-12-26T12:39:01.578Z,52.90
2022-12-26T12:41:58.304Z,52.90
2022-12-26T12:44:31.586Z,52.90
2022-12-26T12:47:03.838Z,52.90
2022-12-26T12:49:45.002Z,52.90
2022-12-26T12:52:18.772Z,52.90
2022-12-26T12:54:55.217Z,52.90
2022-12-26T12:57:26.823Z,52.90
2022-12-26T13:00:02.701Z,52.90
2022-12-26T13:02:33.745Z,52.90
2022-12-26T13:05:06.545Z,53.00
2022-12-26T13:07:40.651Z,53.00
2022-12-26T13:10:17.048Z,52.90
2022-12-26T13:12:44.939Z,53.00
2022-12-26T13:15:28.615Z,53.00
2022-12-26T13:17:59.165Z,53.00
2022-12-26T13:20:29.809Z,53.00
2022-12-26T13:23:17.475Z,53.00
2022-12-26T13:25:47.300Z,53.00
2022-12-26T13:28:17.260Z,52.90
2022-12-26T13:30:46.513Z,52.90
2022-12-26T13:33:15.862Z,52.90
2022-12-26T13:35:55.443Z,53.00
2022-12-26T13:38:23.760Z,52.90
2022-12-26T13:40:54.862Z,52.80
2022-12-26T13:43:41.814Z,52.90
2022-12-26T13:46:35.689Z,52.80
2022-12-26T13:49:03.581Z,52.90
2022-12-26T13:51:49.921Z,52.80
2022-12-26T13:54:18.325Z,52.80
2022-12-26T13:57:29.631Z,52.80
2022-12-26T14:00:07.182Z,52.90
2022-12-26T14:03:17.379Z,52.90
2022-12-26T14:05:56.701Z,52.90
2022-12-26T14:08:29.559Z,52.90
2022-12-26T14:10:59.635Z,52.90
2022-12-26T14:13:49.522Z,53.00
2022-12-26T14:16:20.360Z,53.00
2022-12-26T14:18:51.083Z,53.00
2022-12-26T14:21:34.891Z,53.00
2022-12-26T14:24:10.158Z,52.90
2022-12-26T14:26:44.427Z,53.00
2022-12-26T14:29:18.346Z,53.00
2022-12-26T14:31:49.415Z,53.00
2022-12-26T14:34:26.142Z,52.90
2022-12-26T14:37:00.409Z,53.00
2022-12-26T14:39:33.183Z,52.90
2022-12-26T14:42:42.662Z,53.00
2022-12-26T14:45:37.934Z,53.00
2022-12-26T14:48:30.612Z,53.00
2022-12-26T14:51:30.548Z,53.00
2022-12-26T14:54:34.408Z,53.10
2022-12-26T14:57:02.570Z,53.10
2022-12-26T14:59:31.601Z,52.90
2022-12-26T15:02:11.120Z,53.00
2022-12-26T15:05:06.608Z,53.00
2022-12-26T15:08:08.390Z,53.00
2022-12-26T15:11:16.003Z,53.10
2022-12-26T15:14:03.124Z,53.10
2022-12-26T15:16:37.989Z,53.10
2022-12-26T15:19:42.997Z,53.10
2022-12-26T15:22:44.339Z,53.10
2022-12-26T15:25:35.337Z,53.10
2022-12-26T15:28:36.102Z,53.10
2022-12-26T15:31:15.431Z,53.10
2022-12-26T15:33:45.375Z,53.00
2022-12-26T15:36:18.363Z,53.10
2022-12-26T15:38:48.546Z,53.00
2022-12-26T15:41:24.106Z,53.10
2022-12-26T15:43:57.998Z,53.10
2022-12-26T15:46:28.560Z,53.10
2022-12-26T15:49:07.046Z,53.10
2022-12-26T15:51:49.648Z,53.10
2022-12-26T15:54:29.803Z,53.10
2022-12-26T15:57:06.649Z,53.00
2022-12-26T15:59:49.371Z,53.10
2022-12-26T16:02:33.142Z,53.40
2022-12-26T16:05:09.993Z,53.10
2022-12-26T16:07:40.719Z,53.00
2022-12-26T16:10:16.721Z,53.00
2022-12-26T16:12:59.194Z,53.00
2022-12-26T16:15:27.417Z,53.10
2022-12-26T16:17:55.317Z,53.00
2022-12-26T16:20:45.489Z,53.00
2022-12-26T16:23:16.024Z,53.00
2022-12-26T16:25:47.803Z,53.00
2022-12-26T16:28:17.035Z,53.00
2022-12-26T16:30:45.031Z,52.90
2022-12-26T16:33:13.087Z,53.00
2022-12-26T16:35:41.664Z,53.00
2022-12-26T16:38:15.548Z,53.00
2022-12-26T16:40:44.129Z,53.50
2022-12-26T16:43:26.101Z,53.00
2022-12-26T16:45:55.117Z,53.00
2022-12-26T16:48:23.854Z,53.00
2022-12-26T16:50:53.196Z,53.00
2022-12-26T16:53:21.921Z,53.00
2022-12-26T16:55:50.535Z,53.00
2022-12-26T16:58:24.792Z,53.00
2022-12-26T17:01:03.224Z,53.00
2022-12-26T17:03:37.921Z,53.00
2022-12-26T17:06:10.089Z,53.00
2022-12-26T17:08:41.970Z,53.00
2022-12-26T17:11:09.834Z,53.00
2022-12-26T17:13:39.281Z,53.00
2022-12-26T17:16:10.601Z,53.00
2022-12-26T17:18:46.071Z,53.00
2022-12-26T17:21:26.969Z,53.00
2022-12-26T17:24:21.473Z,53.10
2022-12-26T17:26:52.813Z,53.10
2022-12-26T17:29:52.995Z,53.10
2022-12-26T17:32:31.095Z,53.10
2022-12-26T17:35:01.823Z,53.10
2022-12-26T17:37:29.730Z,53.10
2022-12-26T17:40:03.177Z,53.00
2022-12-26T17:42:31.852Z,53.10
2022-12-26T17:45:02.617Z,53.10
2022-12-26T17:47:30.510Z,53.10
2022-12-26T17:49:58.423Z,53.10
2022-12-26T17:52:27.343Z,53.10
2022-12-26T17:54:55.279Z,53.10
2022-12-26T17:57:24.186Z,53.10
2022-12-26T17:59:52.606Z,53.10
2022-12-26T18:02:22.186Z,53.10
2022-12-26T18:04:50.189Z,53.10
2022-12-26T18:07:19.512Z,53.10
2022-12-26T18:09:47.705Z,53.10
2022-12-26T18:12:16.508Z,53.20
2022-12-26T18:14:44.436Z,53.20
2022-12-26T18:17:12.617Z,53.20
2022-12-26T18:19:41.905Z,53.10
2022-12-26T18:22:13.668Z,53.10
2022-12-26T18:24:41.529Z,53.10
2022-12-26T18:27:12.153Z,53.10
2022-12-26T18:29:42.100Z,53.00
2022-12-26T18:32:13.206Z,54.00
2022-12-26T18:34:42.460Z,53.10
2022-12-26T18:37:10.696Z,53.00
2022-12-26T18:39:38.588Z,53.00
2022-12-26T18:42:07.123Z,53.00
2022-12-26T18:44:35.163Z,53.00
2022-12-26T18:47:03.049Z,53.10
2022-12-26T18:49:30.971Z,53.00
2022-12-26T18:52:00.223Z,53.00
2022-12-26T18:54:28.311Z,53.00
2022-12-26T18:56:56.293Z,53.00
2022-12-26T18:59:24.160Z,53.10
2022-12-26T19:01:52.135Z,53.00
2022-12-26T19:04:20.097Z,53.00
2022-12-26T19:06:47.956Z,53.00
2022-12-26T19:09:17.296Z,53.00
2022-12-26T19:11:45.154Z,52.90
2022-12-26T19:14:18.646Z,52.90
2022-12-26T19:16:46.598Z,53.00
2022-12-26T19:19:14.513Z,53.00
2022-12-26T19:21:43.404Z,53.00
2022-12-26T19:24:11.768Z,53.00
2022-12-26T19:26:40.987Z,53.00
2022-12-26T19:29:09.895Z,53.00
2022-12-26T19:31:37.784Z,53.00
2022-12-26T19:34:05.674Z,53.00
2022-12-26T19:36:33.561Z,53.00
2022-12-26T19:39:01.448Z,53.00
2022-12-26T19:41:29.481Z,53.10
2022-12-26T19:43:59.321Z,53.00
2022-12-26T19:46:27.453Z,53.10
2022-12-26T19:48:55.447Z,53.10
2022-12-26T19:51:23.409Z,53.10
2022-12-26T19:53:51.307Z,53.10
2022-12-26T19:56:20.288Z,53.10
2022-12-26T19:58:51.863Z,53.10
2022-12-26T20:01:25.246Z,53.00
2022-12-26T20:03:55.979Z,53.10
2022-12-26T20:06:26.088Z,53.00
2022-12-26T20:08:56.393Z,53.00
2022-12-26T20:11:25.476Z,53.10
2022-12-26T20:13:53.341Z,53.10
2022-12-26T20:17:03.390Z,53.10
2022-12-26T20:19:11.780Z,53.10
2022-12-26T20:21:39.849Z,53.00
2022-12-26T20:24:08.046Z,53.10
2022-12-26T20:26:35.944Z,53.10
2022-12-26T20:29:03.880Z,53.00
2022-12-26T20:31:33.826Z,53.10
2022-12-26T20:34:01.722Z,53.20
2022-12-26T20:36:30.384Z,53.10
2022-12-26T20:38:59.135Z,53.20
2022-12-26T20:41:27.070Z,53.10
2022-12-26T20:43:54.967Z,53.20
2022-12-26T20:46:23.855Z,53.10
2022-12-26T20:48:53.286Z,53.10
2022-12-26T20:51:23.159Z,53.10
2022-12-26T20:53:51.266Z,53.10
2022-12-26T20:56:19.298Z,53.00
2022-12-26T20:58:47.242Z,53.10
2022-12-26T21:01:16.453Z,53.00
2022-12-26T21:03:44.552Z,53.10
2022-12-26T21:06:15.427Z,53.00
2022-12-26T21:08:44.369Z,53.00
2022-12-26T21:11:13.757Z,53.10
2022-12-26T21:13:41.889Z,53.00
2022-12-26T21:16:10.684Z,53.00
2022-12-26T21:18:38.546Z,53.00
2022-12-26T21:21:08.308Z,53.00
2022-12-26T21:23:37.572Z,53.00
2022-12-26T21:26:05.706Z,53.00
2022-12-26T21:28:33.858Z,53.00
2022-12-26T21:31:01.867Z,53.00
2022-12-26T21:33:29.802Z,53.00
2022-12-26T21:35:57.756Z,53.00
2022-12-26T21:38:28.340Z,54.00
2022-12-26T21:40:57.619Z,53.00
2022-12-26T21:43:30.364Z,53.00
2022-12-26T21:46:01.346Z,53.00
2022-12-26T21:48:29.475Z,53.00
2022-12-26T21:50:57.352Z,53.00
2022-12-26T21:53:25.323Z,53.10
2022-12-26T21:55:52.235Z,53.10
2022-12-26T21:58:21.767Z,53.00
2022-12-26T22:00:49.661Z,53.00
2022-12-26T22:03:34.964Z,53.00
2022-12-26T22:06:02.880Z,53.00
2022-12-26T22:08:30.743Z,53.00
2022-12-26T22:11:16.415Z,53.00
2022-12-26T22:13:47.056Z,53.10
2022-12-26T22:16:16.226Z,53.10
2022-12-26T22:18:45.124Z,53.10
2022-12-26T22:21:13.889Z,53.20
2022-12-26T22:23:42.212Z,53.10
2022-12-26T22:26:10.953Z,53.10
2022-12-26T22:28:39.062Z,53.20
2022-12-26T22:31:08.340Z,53.20
2022-12-26T22:33:36.267Z,53.10
2022-12-26T22:36:07.479Z,53.10
2022-12-26T22:38:35.517Z,53.10
2022-12-26T22:41:03.478Z,53.10
2022-12-26T22:43:32.659Z,53.10
2022-12-26T22:46:00.598Z,53.10
2022-12-26T22:48:29.898Z,53.10
2022-12-26T22:50:57.764Z,53.10
2022-12-26T22:53:25.856Z,53.10
2022-12-26T22:55:57.089Z,53.10
2022-12-26T22:58:25.003Z,53.20
2022-12-26T23:00:52.849Z,53.10
2022-12-26T23:03:20.842Z,53.10
2022-12-26T23:05:50.555Z,53.10
2022-12-26T23:08:21.414Z,53.10
2022-12-26T23:10:50.314Z,53.10
2022-12-26T23:13:18.727Z,53.20
2022-12-26T23:15:53.404Z,53.10
2022-12-26T23:18:44.236Z,53.10
2022-12-26T23:21:39.800Z,53.10
2022-12-26T23:24:08.273Z,53.10
2022-12-26T23:26:36.217Z,53.10
2022-12-26T23:29:21.743Z,53.10
2022-12-26T23:31:49.608Z,53.00
2022-12-26T23:34:17.493Z,53.00
2022-12-26T23:36:46.779Z,53.00
2022-12-26T23:39:14.678Z,53.00
2022-12-26T23:41:42.540Z,53.00
2022-12-26T23:44:10.491Z,53.00
2022-12-26T23:46:38.507Z,53.10
2022-12-26T23:49:06.414Z,53.00
2022-12-26T23:51:34.300Z,53.10
2022-12-26T23:54:03.526Z,53.00
2022-12-26T23:56:31.426Z,53.00
2022-12-26T23:58:59.302Z,53.00
